Theodore Francis Green State Airport
KPVD : now visible

Airfield :











YOU CAN JOIN US ON...

 
LOGIN :

Register | Disclaimer

   EN    FR    IT 

 









Legend :    VFR   Marginal VFR   IFR   Intensive IFR   Very Intensive IFR
Visi :
Ceiling :
>= 8 km
>= 3000ft
5 to 8 km
1000 to 3000 ft
1500m to 5 km
500 to 1000 ft
800 to 1500m
200 to 500 ft
< 800m
< 200 ft
Symbols :   Thunderstorms  Fog  Heavy snow  Heavy precipitations  Wind > 20 kt







- Airport Elevation : 55 ft
- IATA code : PVD


KPVD - Theodore Francis Green State

CURRENT METAR :
  • 191751Z 14006G17KT 10SM SCT042 SCT050 SCT300 30/24 A2995 RMK AO2 SLP142 T03000244 10328 20239 58010

EXPIRED METARs :
  • 191651Z 15012KT 10SM FEW025 FEW040 FEW110 SCT300 30/24 A2997 RMK AO2 SLP147 T03000244
  • 191551Z 23010KT 10SM FEW036 FEW100 FEW200 BKN300 32/22 A2998 RMK AO2 SLP152 T03170222

TAF KPVD
Valid from the 19 at 18:00 until the 20 at 18:00 UTC


191739Z 1918/2018 16012KT P6SM FEW025 FEW040
FM191900 20010G17KT P6SM SCT200
FM192200 21009KT P6SM SCT200
FM200200 24005KT P6SM SCT250
FM200400 27005KT P6SM FEW250
FM200600 30004KT P6SM FEW250
No reported NOTAMs for that airfield.



MET'MAP, your aeronautical weather chart ! - Copyright ORBIFLY December 2007 - Disclaimer

ORBIFLY MET'MAP TEAM :

Programming & Development : Alexandra Zaïnal
Concept & Development : Baudouin d'Aumeries
Co-Development & Prog : Marc-Olivier Méhu
Technical & hardware support : Manuel Goepfert

Contact : metmap@orbifly.com




SOURCES & CREDITS :

   NOAA       Earth
Advisory